Estación de Polizones INIA

Ultimos registro cada 15 minutos 35
Estación Fecha / Hora Temperatura Humedad Lluvia Velocidad Dirección Radiación Presion
35 Polizones INIA 07-05-2026 08:30 3,6 95,5 0 0 0 34 1009
34 Polizones INIA 07-05-2026 08:15 3,3 95,5 0 0 0 17 1009
33 Polizones INIA 07-05-2026 08:00 3,9 94,8 0 0 0 5 1009
32 Polizones INIA 07-05-2026 07:45 4 95,8 0 0 300 2 1009
31 Polizones INIA 07-05-2026 07:30 3,8 96 0 0 0 0 1009
30 Polizones INIA 07-05-2026 07:15 3,6 96,3 0 0 0 0 1009
29 Polizones INIA 07-05-2026 07:00 3,8 96 0 0 0 0 1009
28 Polizones INIA 07-05-2026 06:45 3,7 95,8 0 0 0 0 1009
27 Polizones INIA 07-05-2026 06:30 3,6 95,2 0 0 0 0 1009
26 Polizones INIA 07-05-2026 06:15 3,1 95 0 0 0 0 1008
25 Polizones INIA 07-05-2026 06:00 3,1 93,7 0 0 0 0 1008
24 Polizones INIA 07-05-2026 05:45 3,7 92,5 0 0 0 0 1008
23 Polizones INIA 07-05-2026 05:30 4,8 90 0 0 0 0 1009
22 Polizones INIA 07-05-2026 05:15 5,2 89,1 0,1 0,1 204 0 1009
21 Polizones INIA 07-05-2026 05:00 5,4 89,9 0 0 0 0 1008
20 Polizones INIA 07-05-2026 04:45 5,6 86,6 0,1 0,3 160 0 1008
19 Polizones INIA 07-05-2026 04:30 5,9 85,8 0,4 1,7 181 0 1008
18 Polizones INIA 07-05-2026 04:15 6 83,9 0 0 0 0 1008
17 Polizones INIA 07-05-2026 04:00 6,1 83,7 0 0,1 224 0 1008
16 Polizones INIA 07-05-2026 03:45 6,1 82,3 0 0,8 202 0 1008
15 Polizones INIA 07-05-2026 03:30 5,9 83,4 0 0,1 198 0 1008
14 Polizones INIA 07-05-2026 03:15 5,9 85,3 0 0 0 0 1008
13 Polizones INIA 07-05-2026 03:00 6 83,1 0 0 0 0 1008
12 Polizones INIA 07-05-2026 02:45 6 83,4 0 0,6 209 0 1008
11 Polizones INIA 07-05-2026 02:30 5,8 82,3 0 1 202 0 1007
10 Polizones INIA 07-05-2026 02:15 5,5 83,1 0 0 208 0 1007
9 Polizones INIA 07-05-2026 02:00 6,1 77,7 0 0 0 0 1007
8 Polizones INIA 07-05-2026 01:45 6,5 75,8 0 0,6 205 0 1007
7 Polizones INIA 07-05-2026 01:30 7 74,4 0 1,4 206 0 1007
6 Polizones INIA 07-05-2026 01:15 7,4 70,3 0 1,7 201 0 1007
5 Polizones INIA 07-05-2026 01:00 7,5 71,6 0 1,9 197 0 1006
4 Polizones INIA 07-05-2026 00:45 7,7 76,4 0 1,7 195 0 1006
3 Polizones INIA 07-05-2026 00:30 7,8 75,9 0 1,8 195 0 1006
2 Polizones INIA 07-05-2026 00:15 7,8 76,5 0 2,5 199 0 1006
1 Polizones INIA 07-05-2026 00:00 7,9 77,3 0 2 208 0 1006